Time;durP1;ratioP1;P1;durP2;ratioP2;P2;SDS_P1;SDS_P2;PMS_P1;PMS_P2;Temp;Humidity;BMP_temperature;BMP_pressure;BME280_temperature;BME280_humidity;BME280_pressure;Samples;Min_cycle;Max_cycle;Signal;HPM_P1;HPM_P2
2022/04/22 00:00:09;;;;;;;;;;;11.10;99.90;;;;;;5152864;27;19907;-75
2022/04/22 00:02:35;;;;;;;;;;;11.00;99.90;;;;;;5153051;27;19921;-75
2022/04/22 00:05:01;;;;;;;;;;;11.00;99.90;;;;;;5153494;27;19917;-75
2022/04/22 00:07:28;;;;;;;;;;;10.90;99.90;;;;;;5152765;27;20323;-75
2022/04/22 00:09:54;;;;;;;;;;;10.90;99.90;;;;;;5152899;27;19911;-75
2022/04/22 00:12:19;;;;;;;;;;;10.80;99.90;;;;;;5150728;27;19960;-75
2022/04/22 00:14:45;;;;;;;;;;;10.90;99.90;;;;;;5153624;27;19907;-74
2022/04/22 00:17:11;;;;;;;;;;;10.80;99.90;;;;;;5153431;27;19908;-75
2022/04/22 00:19:36;;;;;;;;;;;10.80;99.90;;;;;;5153824;27;19966;-75
2022/04/22 00:22:02;;;;;;;;;;;10.80;99.90;;;;;;5153269;27;19922;-76
2022/04/22 00:24:27;;;;;;;;;;;10.80;99.90;;;;;;5154801;27;20348;-76
2022/04/22 00:26:53;;;;;;;;;;;10.80;99.90;;;;;;5155379;27;19907;-75
2022/04/22 00:29:19;;;;;;;;;;;10.80;99.90;;;;;;5156837;27;19907;-76
2022/04/22 00:31:44;;;;;;;;;;;10.80;99.90;;;;;;5157778;27;19947;-76
2022/04/22 00:34:10;;;;;;;;;;;10.70;99.90;;;;;;5156796;27;19923;-75
2022/04/22 00:36:35;;;;;;;;;;;10.60;99.90;;;;;;5157116;27;20348;-76
2022/04/22 00:39:01;;;;;;;;;;;10.70;99.90;;;;;;5157197;27;19907;-75
2022/04/22 00:41:27;;;;;;;;;;;10.70;99.90;;;;;;5156615;27;19921;-76
2022/04/22 00:43:53;;;;;;;;;;;10.70;99.90;;;;;;5157500;27;19907;-75
2022/04/22 00:46:19;;;;;;;;;;;10.60;99.90;;;;;;5156676;27;19907;-76
2022/04/22 00:48:45;;;;;;;;;;;10.60;99.90;;;;;;5157258;27;19907;-75
2022/04/22 00:51:11;;;;;;;;;;;10.60;99.90;;;;;;5156873;27;20271;-76
2022/04/22 00:53:38;;;;;;;;;;;10.60;99.90;;;;;;5156648;27;19950;-75
2022/04/22 00:56:05;;;;;;;;;;;10.60;99.90;;;;;;5156295;27;19919;-76
2022/04/22 00:58:31;;;;;;;;;;;10.60;99.90;;;;;;5156813;27;19971;-76
2022/04/22 01:00:57;;;;;;;;;;;10.50;99.90;;;;;;5157175;27;19922;-75
2022/04/22 01:03:22;;;;;;;;;;;10.50;99.90;;;;;;5156315;27;19908;-75
2022/04/22 01:11:19;;;;;;;;;;;10.50;99.90;;;;;;5155895;27;20424;-75
2022/04/22 01:13:45;;;;;;;;;;;10.50;99.90;;;;;;5156639;27;19911;-75
2022/04/22 01:16:11;;;;;;;;;;;10.50;99.90;;;;;;5156074;27;19907;-75
2022/04/22 01:18:37;;;;;;;;;;;10.40;99.90;;;;;;5156319;27;20280;-75
2022/04/22 01:21:03;;;;;;;;;;;10.40;99.90;;;;;;5156553;27;19915;-75
2022/04/22 01:23:29;;;;;;;;;;;10.40;99.90;;;;;;5156045;27;20422;-75
2022/04/22 01:25:56;;;;;;;;;;;10.30;99.90;;;;;;5156396;27;19907;-75
2022/04/22 01:28:21;;;;;;;;;;;10.40;99.90;;;;;;5155935;27;20370;-75
2022/04/22 01:30:48;;;;;;;;;;;10.40;99.90;;;;;;5156429;27;19907;-75
2022/04/22 01:33:14;;;;;;;;;;;10.30;99.90;;;;;;5155588;27;19955;-75
2022/04/22 01:35:39;;;;;;;;;;;10.30;99.90;;;;;;5156119;27;19960;-75
2022/04/22 01:38:05;;;;;;;;;;;10.30;99.90;;;;;;5156030;27;20006;-75
2022/04/22 01:40:30;;;;;;;;;;;10.30;99.90;;;;;;5155524;27;19919;-75
2022/04/22 01:42:56;;;;;;;;;;;10.30;99.90;;;;;;5156004;27;19965;-75
2022/04/22 01:45:21;;;;;;;;;;;10.20;99.90;;;;;;5155578;27;19914;-75
2022/04/22 01:47:47;;;;;;;;;;;10.20;99.90;;;;;;5156012;27;19907;-75
2022/04/22 01:50:13;;;;;;;;;;;10.10;99.90;;;;;;5155278;27;19911;-75
2022/04/22 01:52:40;;;;;;;;;;;10.20;99.90;;;;;;5156269;27;19952;-75
2022/04/22 01:55:06;;;;;;;;;;;10.20;99.90;;;;;;5136929;27;19914;-75
2022/04/22 01:57:32;;;;;;;;;;;10.20;99.90;;;;;;5155251;27;19908;-75
2022/04/22 01:59:59;;;;;;;;;;;10.20;99.90;;;;;;5155901;27;20359;-75
2022/04/22 02:02:24;;;;;;;;;;;10.10;99.90;;;;;;5155094;27;19966;-75
2022/04/22 02:04:50;;;;;;;;;;;10.10;99.90;;;;;;5155743;27;19967;-75
2022/04/22 02:07:16;;;;;;;;;;;10.10;99.90;;;;;;5154789;27;20364;-75
2022/04/22 02:09:41;;;;;;;;;;;10.10;99.90;;;;;;5154873;27;19907;-75
2022/04/22 02:12:07;;;;;;;;;;;10.00;99.90;;;;;;5155642;27;19907;-75
2022/04/22 02:14:33;;;;;;;;;;;10.00;99.90;;;;;;5154762;27;20355;-75
2022/04/22 02:16:59;;;;;;;;;;;10.00;99.90;;;;;;5154694;27;19914;-75
2022/04/22 02:19:25;;;;;;;;;;;10.00;99.90;;;;;;5154855;27;19907;-75
2022/04/22 02:21:51;;;;;;;;;;;9.90;99.90;;;;;;5155348;27;19941;-75
2022/04/22 02:24:16;;;;;;;;;;;10.00;99.90;;;;;;5154846;27;20352;-75
2022/04/22 02:29:26;;;;;;;;;;;10.00;99.90;;;;;;5154613;27;19913;-75
2022/04/22 02:31:53;;;;;;;;;;;10.00;99.90;;;;;;5155256;27;19907;-76
2022/04/22 02:34:19;;;;;;;;;;;10.00;99.90;;;;;;5154598;27;19907;-75
2022/04/22 02:36:45;;;;;;;;;;;10.00;99.90;;;;;;5154790;27;19915;-74
2022/04/22 02:39:11;;;;;;;;;;;9.90;99.90;;;;;;5155401;27;19915;-75
2022/04/22 02:47:05;;;;;;;;;;;9.80;99.90;;;;;;5154791;27;20432;-74
2022/04/22 02:49:31;;;;;;;;;;;9.80;99.90;;;;;;5153455;27;19911;-73
2022/04/22 02:51:56;;;;;;;;;;;9.80;99.90;;;;;;5154922;27;19914;-74
2022/04/22 02:54:22;;;;;;;;;;;9.80;99.90;;;;;;5154301;27;19981;-74
2022/04/22 02:56:50;;;;;;;;;;;9.80;99.90;;;;;;5154855;27;19987;-74
2022/04/22 02:59:17;;;;;;;;;;;9.80;99.90;;;;;;5154149;27;20009;-74
2022/04/22 03:01:43;;;;;;;;;;;9.80;99.90;;;;;;5154762;27;19923;-74
2022/04/22 03:04:09;;;;;;;;;;;9.80;99.90;;;;;;5154733;27;19907;-74
2022/04/22 03:06:35;;;;;;;;;;;9.80;99.90;;;;;;5153865;27;19903;-74
2022/04/22 03:09:00;;;;;;;;;;;9.80;99.90;;;;;;5154437;27;19918;-74
2022/04/22 03:11:26;;;;;;;;;;;9.80;99.90;;;;;;5154190;27;19907;-75
2022/04/22 03:13:51;;;;;;;;;;;9.80;99.90;;;;;;5154540;27;19907;-74
2022/04/22 03:16:18;;;;;;;;;;;9.80;99.90;;;;;;5154038;27;19953;-74
2022/04/22 03:18:43;;;;;;;;;;;9.80;99.90;;;;;;5154624;27;20006;-74
2022/04/22 03:21:09;;;;;;;;;;;9.80;99.90;;;;;;5154508;27;20064;-74
2022/04/22 03:23:35;;;;;;;;;;;9.80;99.90;;;;;;5135156;27;20504;-74
2022/04/22 03:26:00;;;;;;;;;;;9.80;99.90;;;;;;5154276;27;19956;-74
2022/04/22 03:28:26;;;;;;;;;;;9.80;99.90;;;;;;5153950;27;20324;-74
2022/04/22 03:30:51;;;;;;;;;;;9.70;99.90;;;;;;5154131;27;19907;-74
2022/04/22 03:33:17;;;;;;;;;;;9.70;99.90;;;;;;5153828;27;19914;-74
2022/04/22 03:35:43;;;;;;;;;;;9.70;99.90;;;;;;5154378;27;19907;-74
2022/04/22 03:38:11;;;;;;;;;;;9.70;99.90;;;;;;5154248;27;19907;-74
2022/04/22 03:40:36;;;;;;;;;;;9.70;99.90;;;;;;5153748;27;19907;-74
2022/04/22 03:43:03;;;;;;;;;;;9.70;99.90;;;;;;5154126;27;19995;-74
2022/04/22 03:45:29;;;;;;;;;;;9.60;99.90;;;;;;5153648;27;19907;-74
2022/04/22 03:47:58;;;;;;;;;;;9.60;99.90;;;;;;5154259;27;19907;-73
2022/04/22 03:50:25;;;;;;;;;;;9.50;99.90;;;;;;5153615;27;19989;-74
2022/04/22 03:52:51;;;;;;;;;;;9.50;99.90;;;;;;5154276;27;19911;-74
2022/04/22 03:55:16;;;;;;;;;;;9.50;99.90;;;;;;5135293;27;20344;-74
2022/04/22 04:00:26;;;;;;;;;;;9.50;99.90;;;;;;5153959;27;19942;-74
2022/04/22 04:02:52;;;;;;;;;;;9.50;99.90;;;;;;5158132;27;20374;-74
2022/04/22 04:05:17;;;;;;;;;;;9.50;99.90;;;;;;5158040;27;20374;-74
2022/04/22 04:07:43;;;;;;;;;;;9.40;99.90;;;;;;5157530;27;19907;-75
2022/04/22 04:18:22;;;;;;;;;;;9.30;99.90;;;;;;5157320;27;19914;-74
2022/04/22 04:23:31;;;;;;;;;;;9.30;99.90;;;;;;5141591;27;20025;-75
2022/04/22 04:25:57;;;;;;;;;;;9.30;99.90;;;;;;5139164;27;20015;-74
2022/04/22 04:28:23;;;;;;;;;;;9.30;99.90;;;;;;5156957;27;19929;-74
2022/04/22 04:30:48;;;;;;;;;;;9.30;99.90;;;;;;5139103;27;19907;-74
2022/04/22 04:33:14;;;;;;;;;;;9.30;99.90;;;;;;5157724;27;19952;-74
2022/04/22 04:35:40;;;;;;;;;;;9.30;99.90;;;;;;5156876;27;20400;-74
2022/04/22 04:38:07;;;;;;;;;;;9.30;99.90;;;;;;5157235;27;20263;-74
2022/04/22 04:40:33;;;;;;;;;;;9.30;99.90;;;;;;5156737;27;19914;-74
2022/04/22 04:43:01;;;;;;;;;;;9.20;99.90;;;;;;5157450;27;20340;-75
2022/04/22 04:45:28;;;;;;;;;;;9.20;99.90;;;;;;5156633;27;19914;-75
2022/04/22 04:47:53;;;;;;;;;;;9.30;99.90;;;;;;5157204;27;19911;-74
2022/04/22 04:50:19;;;;;;;;;;;9.30;99.90;;;;;;5157159;27;19914;-75
2022/04/22 04:52:44;;;;;;;;;;;9.30;99.90;;;;;;5155954;27;19907;-74
2022/04/22 04:55:11;;;;;;;;;;;9.20;99.90;;;;;;5157166;27;19950;-74
2022/04/22 04:57:36;;;;;;;;;;;9.20;99.90;;;;;;5156279;27;19991;-74
2022/04/22 05:00:05;;;;;;;;;;;9.20;99.90;;;;;;5156878;27;19943;-74
2022/04/22 05:02:31;;;;;;;;;;;9.20;99.90;;;;;;5155795;27;19966;-75
2022/04/22 05:04:57;;;;;;;;;;;9.20;99.90;;;;;;5156597;27;19914;-74
2022/04/22 05:07:22;;;;;;;;;;;9.20;99.90;;;;;;5156468;27;19911;-74
2022/04/22 05:09:48;;;;;;;;;;;9.20;99.90;;;;;;5156321;27;20360;-74
2022/04/22 05:12:13;;;;;;;;;;;9.10;99.90;;;;;;5156073;27;19946;-74
2022/04/22 05:14:39;;;;;;;;;;;9.20;99.90;;;;;;5155938;27;19907;-74
2022/04/22 05:17:05;;;;;;;;;;;9.20;99.90;;;;;;5138003;27;19908;-74
2022/04/22 05:19:30;;;;;;;;;;;9.20;99.90;;;;;;5155991;27;20001;-74
2022/04/22 05:21:56;;;;;;;;;;;9.20;99.90;;;;;;5156740;27;20403;-74
2022/04/22 05:24:22;;;;;;;;;;;9.20;99.90;;;;;;5156324;27;19929;-73
2022/04/22 05:26:48;;;;;;;;;;;9.10;99.90;;;;;;5155990;27;19911;-74
2022/04/22 05:34:42;;;;;;;;;;;9.10;99.90;;;;;;5155456;27;19914;-74
2022/04/22 05:37:08;;;;;;;;;;;9.10;99.90;;;;;;5137743;27;19907;-74
2022/04/22 05:39:33;;;;;;;;;;;9.10;99.90;;;;;;5155479;27;19913;-74
2022/04/22 05:42:01;;;;;;;;;;;9.10;99.90;;;;;;5156401;27;19915;-74
2022/04/22 05:44:27;;;;;;;;;;;9.10;99.90;;;;;;5136939;27;19942;-74
2022/04/22 05:46:53;;;;;;;;;;;9.20;99.90;;;;;;5155867;27;19907;-74
2022/04/22 05:49:18;;;;;;;;;;;9.20;99.90;;;;;;5137415;27;19907;-74
2022/04/22 05:51:44;;;;;;;;;;;9.20;99.90;;;;;;5155398;27;19914;-74
2022/04/22 05:54:09;;;;;;;;;;;9.20;99.90;;;;;;5155908;27;20241;-74
2022/04/22 05:56:35;;;;;;;;;;;9.10;99.90;;;;;;5155289;27;20276;-74
2022/04/22 05:59:02;;;;;;;;;;;9.10;99.90;;;;;;5155889;27;20359;-75
2022/04/22 06:01:28;;;;;;;;;;;9.10;99.90;;;;;;5155108;27;19922;-74
2022/04/22 06:03:53;;;;;;;;;;;9.10;99.90;;;;;;5155713;27;19907;-74
2022/04/22 06:06:19;;;;;;;;;;;9.20;99.90;;;;;;5137247;27;19915;-74
2022/04/22 06:11:28;;;;;;;;;;;9.10;99.90;;;;;;5155300;27;19914;-75
2022/04/22 06:13:55;;;;;;;;;;;9.20;99.90;;;;;;5155427;27;19907;-75
2022/04/22 06:16:21;;;;;;;;;;;9.20;99.90;;;;;;5154961;27;20318;-74
2022/04/22 06:18:46;;;;;;;;;;;9.20;99.90;;;;;;5154942;27;19907;-75
2022/04/22 06:21:12;;;;;;;;;;;9.30;99.90;;;;;;5155265;27;20301;-74
2022/04/22 06:23:38;;;;;;;;;;;9.30;99.90;;;;;;5154693;27;20272;-74
2022/04/22 06:26:03;;;;;;;;;;;9.30;99.90;;;;;;5154755;27;20267;-74
2022/04/22 06:28:29;;;;;;;;;;;9.30;99.90;;;;;;5154868;27;20320;-75
2022/04/22 06:30:55;;;;;;;;;;;9.40;99.90;;;;;;5154801;27;20328;-74
2022/04/22 06:33:20;;;;;;;;;;;9.40;99.90;;;;;;5154905;27;19915;-75
2022/04/22 06:35:46;;;;;;;;;;;9.40;99.90;;;;;;5154570;27;19914;-74
2022/04/22 06:38:14;;;;;;;;;;;9.50;99.90;;;;;;5154562;27;20013;-74
2022/04/22 06:46:09;;;;;;;;;;;9.50;99.90;;;;;;5154742;27;19918;-73
2022/04/22 06:48:35;;;;;;;;;;;9.50;99.90;;;;;;5154184;27;19914;-74
2022/04/22 06:51:01;;;;;;;;;;;9.50;99.90;;;;;;5154807;27;20364;-74
2022/04/22 06:53:27;;;;;;;;;;;9.50;99.90;;;;;;5154277;27;19911;-74
2022/04/22 06:55:53;;;;;;;;;;;9.60;99.90;;;;;;5153798;27;19919;-73
2022/04/22 06:58:20;;;;;;;;;;;9.70;99.90;;;;;;5154302;27;20312;-73
2022/04/22 07:00:46;;;;;;;;;;;9.80;99.90;;;;;;5153996;27;20033;-73
2022/04/22 07:03:12;;;;;;;;;;;9.80;99.90;;;;;;5135994;27;19907;-74
2022/04/22 07:05:39;;;;;;;;;;;9.80;99.90;;;;;;5135262;27;19960;-74
2022/04/22 07:08:06;;;;;;;;;;;9.70;99.90;;;;;;5154656;27;20002;-73
2022/04/22 07:10:34;;;;;;;;;;;9.90;99.90;;;;;;5153756;27;20022;-74
2022/04/22 07:13:00;;;;;;;;;;;10.10;99.90;;;;;;5154257;27;20280;-74
2022/04/22 07:15:26;;;;;;;;;;;10.20;99.90;;;;;;5136008;27;19914;-74
2022/04/22 07:17:52;;;;;;;;;;;10.10;99.90;;;;;;5153661;27;19903;-74
2022/04/22 07:20:18;;;;;;;;;;;10.10;99.90;;;;;;5154448;27;19907;-74
2022/04/22 07:22:44;;;;;;;;;;;10.20;99.90;;;;;;5153366;27;19922;-74
2022/04/22 07:25:10;;;;;;;;;;;10.40;99.90;;;;;;5154356;27;20402;-74
2022/04/22 07:27:39;;;;;;;;;;;10.40;99.90;;;;;;5153735;27;19954;-74
2022/04/22 07:30:07;;;;;;;;;;;10.50;99.90;;;;;;5154498;27;19957;-74
2022/04/22 07:32:40;;;;;;;;;;;10.60;99.90;;;;;;5153920;27;19915;-74
2022/04/22 07:35:12;;;;;;;;;;;10.40;99.90;;;;;;5154243;27;20415;-73
2022/04/22 07:37:45;;;;;;;;;;;10.50;99.90;;;;;;5158023;27;19911;-74
2022/04/22 07:40:11;;;;;;;;;;;10.50;99.90;;;;;;5140196;27;19915;-74
2022/04/22 07:42:37;;;;;;;;;;;10.40;99.90;;;;;;5157644;27;19915;-74
2022/04/22 07:47:48;;;;;;;;;;;10.30;99.90;;;;;;5142393;27;19967;-74
2022/04/22 07:50:14;;;;;;;;;;;10.40;99.90;;;;;;5158373;27;19911;-73
2022/04/22 07:52:44;;;;;;;;;;;10.50;99.90;;;;;;5139184;27;19907;-74
2022/04/22 07:55:09;;;;;;;;;;;10.50;99.90;;;;;;5158030;27;19907;-75
2022/04/22 07:57:35;;;;;;;;;;;10.50;99.90;;;;;;5158181;27;19959;-74
2022/04/22 08:00:00;;;;;;;;;;;10.50;99.90;;;;;;5158228;27;19911;-75
2022/04/22 08:02:26;;;;;;;;;;;10.60;99.90;;;;;;5157890;27;19915;-74
2022/04/22 08:04:52;;;;;;;;;;;10.60;99.90;;;;;;5157620;27;19907;-75
2022/04/22 08:07:18;;;;;;;;;;;10.70;99.90;;;;;;5157707;27;19955;-75
2022/04/22 08:09:47;;;;;;;;;;;10.90;99.90;;;;;;5157373;27;19907;-75
2022/04/22 08:12:13;;;;;;;;;;;11.10;99.90;;;;;;5157536;27;19907;-75
2022/04/22 08:14:39;;;;;;;;;;;11.10;99.90;;;;;;5157326;27;19950;-75
2022/04/22 08:17:05;;;;;;;;;;;10.80;99.90;;;;;;5158205;27;20404;-75
2022/04/22 08:19:31;;;;;;;;;;;10.80;99.90;;;;;;5157958;27;20356;-75
2022/04/22 08:21:57;;;;;;;;;;;10.80;99.90;;;;;;5157195;27;20019;-75
2022/04/22 08:24:22;;;;;;;;;;;10.90;99.90;;;;;;5157448;27;19948;-75
2022/04/22 08:26:48;;;;;;;;;;;11.00;99.90;;;;;;5157169;27;19907;-75
2022/04/22 08:29:14;;;;;;;;;;;11.10;99.90;;;;;;5157614;27;19914;-75
2022/04/22 08:31:39;;;;;;;;;;;11.00;99.90;;;;;;5157059;27;19962;-75
2022/04/22 08:34:05;;;;;;;;;;;10.90;99.90;;;;;;5157873;27;19914;-75
2022/04/22 08:36:31;;;;;;;;;;;11.00;99.90;;;;;;5157354;27;19950;-75
2022/04/22 08:38:59;;;;;;;;;;;11.10;99.90;;;;;;5156767;27;20520;-75
2022/04/22 08:41:26;;;;;;;;;;;11.30;99.90;;;;;;5139570;27;19915;-75
2022/04/22 08:43:53;;;;;;;;;;;11.40;99.90;;;;;;5156675;27;19913;-75
2022/04/22 08:51:47;;;;;;;;;;;11.70;99.90;;;;;;5156902;27;19913;-75
2022/04/22 08:54:13;;;;;;;;;;;11.80;99.90;;;;;;5157127;27;19907;-74
2022/04/22 08:56:39;;;;;;;;;;;11.80;99.90;;;;;;5156027;27;19919;-74
2022/04/22 08:59:05;;;;;;;;;;;11.90;99.90;;;;;;5156490;27;20340;-74
2022/04/22 09:01:31;;;;;;;;;;;11.70;99.90;;;;;;5156354;27;19926;-74
2022/04/22 09:03:56;;;;;;;;;;;11.70;99.90;;;;;;5156369;27;19914;-75
2022/04/22 09:06:25;;;;;;;;;;;11.70;99.90;;;;;;5156900;27;20371;-75
2022/04/22 09:08:51;;;;;;;;;;;11.70;99.90;;;;;;5155937;27;19911;-75
2022/04/22 09:11:17;;;;;;;;;;;11.80;99.90;;;;;;5156770;27;20051;-75
2022/04/22 09:13:43;;;;;;;;;;;11.70;99.90;;;;;;5155828;27;19907;-75
2022/04/22 09:16:09;;;;;;;;;;;11.60;99.90;;;;;;5156356;27;19907;-75
2022/04/22 09:18:37;;;;;;;;;;;11.40;99.90;;;;;;5156664;27;19907;-75
2022/04/22 09:21:06;;;;;;;;;;;11.20;99.90;;;;;;5155709;27;20028;-75
2022/04/22 09:23:34;;;;;;;;;;;11.10;99.90;;;;;;5155919;27;20350;-75
2022/04/22 09:26:00;;;;;;;;;;;11.10;99.90;;;;;;5155919;27;19911;-75
2022/04/22 09:28:26;;;;;;;;;;;11.00;99.90;;;;;;5156219;27;20368;-75
2022/04/22 09:30:55;;;;;;;;;;;10.90;99.90;;;;;;5155523;27;19915;-75
2022/04/22 09:33:20;;;;;;;;;;;10.90;99.90;;;;;;5156549;27;20001;-75
2022/04/22 09:43:58;;;;;;;;;;;11.10;99.90;;;;;;5155119;27;20275;-75
2022/04/22 09:46:30;;;;;;;;;;;11.10;99.90;;;;;;5156293;27;19907;-75
2022/04/22 09:48:56;;;;;;;;;;;11.30;99.90;;;;;;5155512;27;19907;-75
2022/04/22 09:51:27;;;;;;;;;;;11.20;99.90;;;;;;5156029;27;19994;-74
2022/04/22 09:54:00;;;;;;;;;;;11.20;99.90;;;;;;5155174;27;19937;-75
2022/04/22 09:56:26;;;;;;;;;;;11.10;99.90;;;;;;5156048;27;19962;-74
2022/04/22 09:58:51;;;;;;;;;;;11.20;99.90;;;;;;5136496;27;20382;-75
2022/04/22 10:01:17;;;;;;;;;;;11.20;99.90;;;;;;5155384;27;19962;-75
2022/04/22 10:03:43;;;;;;;;;;;11.00;99.90;;;;;;5136297;27;20148;-76
2022/04/22 10:06:09;;;;;;;;;;;10.90;99.90;;;;;;5155206;27;19907;-76
2022/04/22 10:08:39;;;;;;;;;;;10.80;99.90;;;;;;5155603;27;20005;-76
2022/04/22 10:11:05;;;;;;;;;;;10.90;99.90;;;;;;5154725;27;19913;-76
2022/04/22 10:13:33;;;;;;;;;;;10.90;99.90;;;;;;5155282;27;19994;-76
2022/04/22 10:15:59;;;;;;;;;;;10.90;99.90;;;;;;5154644;27;20352;-76
2022/04/22 10:18:26;;;;;;;;;;;10.70;99.90;;;;;;5155780;27;19907;-76
2022/04/22 10:20:51;;;;;;;;;;;10.60;99.90;;;;;;5154788;27;19934;-76
2022/04/22 10:23:17;;;;;;;;;;;10.70;99.90;;;;;;5155537;27;20356;-76
2022/04/22 10:25:43;;;;;;;;;;;10.70;99.90;;;;;;5155372;27;19998;-76
2022/04/22 10:28:09;;;;;;;;;;;10.60;99.90;;;;;;5154746;27;19907;-76
2022/04/22 10:30:37;;;;;;;;;;;10.70;99.90;;;;;;5155217;27;19907;-76
2022/04/22 10:33:03;;;;;;;;;;;10.60;99.90;;;;;;5154271;27;19907;-76
2022/04/22 10:35:29;;;;;;;;;;;10.70;99.90;;;;;;5155028;27;20434;-76
2022/04/22 10:37:55;;;;;;;;;;;10.60;99.90;;;;;;5154320;27;19994;-76
2022/04/22 10:40:22;;;;;;;;;;;10.60;99.90;;;;;;5154703;27;19935;-76
2022/04/22 10:42:49;;;;;;;;;;;10.70;99.90;;;;;;5154421;27;19922;-76
2022/04/22 10:48:02;;;;;;;;;;;10.60;99.90;;;;;;5154492;27;20374;-76
2022/04/22 10:50:32;;;;;;;;;;;10.60;99.90;;;;;;5154860;27;19907;-76
2022/04/22 10:53:03;;;;;;;;;;;10.70;99.90;;;;;;5154181;27;20264;-76
2022/04/22 10:55:30;;;;;;;;;;;10.60;99.90;;;;;;5154573;27;19954;-76
2022/04/22 10:58:23;;;;;;;;;;;10.60;99.90;;;;;;5154241;27;19911;-76
2022/04/22 11:00:50;;;;;;;;;;;10.60;99.90;;;;;;5149661;27;19948;-76
2022/04/22 11:03:20;;;;;;;;;;;10.60;99.90;;;;;;5154891;27;19907;-76
2022/04/22 11:05:49;;;;;;;;;;;10.50;99.90;;;;;;5136628;27;19914;-76
2022/04/22 11:08:19;;;;;;;;;;;10.60;99.90;;;;;;5154590;27;19911;-76
2022/04/22 11:10:48;;;;;;;;;;;10.60;99.90;;;;;;5153464;27;19949;-76
2022/04/22 11:13:27;;;;;;;;;;;10.70;99.90;;;;;;5154332;27;19914;-76
2022/04/22 11:15:56;;;;;;;;;;;11.00;99.90;;;;;;5153697;27;19907;-76
2022/04/22 11:18:22;;;;;;;;;;;11.00;99.90;;;;;;5154872;27;19967;-76
2022/04/22 11:20:51;;;;;;;;;;;11.10;99.90;;;;;;5154286;27;20387;-76
2022/04/22 11:23:17;;;;;;;;;;;11.30;99.90;;;;;;5154542;27;20272;-76
2022/04/22 11:25:43;;;;;;;;;;;11.50;99.90;;;;;;5154047;27;19907;-75
2022/04/22 11:28:09;;;;;;;;;;;11.60;99.90;;;;;;5153870;27;20075;-76
2022/04/22 11:30:35;;;;;;;;;;;11.60;99.90;;;;;;5135888;27;19915;-76
2022/04/22 11:33:19;;;;;;;;;;;11.70;99.90;;;;;;5153519;27;20313;-75
2022/04/22 11:35:47;;;;;;;;;;;11.80;99.90;;;;;;5154555;27;19908;-75
2022/04/22 11:38:13;;;;;;;;;;;12.00;99.90;;;;;;5153726;27;19946;-75
2022/04/22 11:40:39;;;;;;;;;;;11.80;99.90;;;;;;5153883;27;19907;-75
2022/04/22 11:43:12;;;;;;;;;;;11.90;99.90;;;;;;5153033;27;20387;-75
2022/04/22 11:45:40;;;;;;;;;;;12.00;99.90;;;;;;5153916;27;19907;-75
2022/04/22 11:48:06;;;;;;;;;;;11.90;99.90;;;;;;5153579;27;20279;-76
2022/04/22 11:50:37;;;;;;;;;;;11.90;99.90;;;;;;5154024;27;19914;-75
2022/04/22 11:53:06;;;;;;;;;;;12.10;99.90;;;;;;5153313;27;19915;-76
2022/04/22 11:55:32;;;;;;;;;;;12.00;99.90;;;;;;5153981;27;19926;-75
2022/04/22 11:57:59;;;;;;;;;;;11.90;99.90;;;;;;5153536;27;20321;-75
2022/04/22 12:05:54;;;;;;;;;;;11.80;99.90;;;;;;5153066;27;19914;-76
2022/04/22 12:08:19;;;;;;;;;;;11.60;99.90;;;;;;5154008;27;19907;-76
2022/04/22 12:10:46;;;;;;;;;;;11.60;99.90;;;;;;5153342;27;19907;-76
2022/04/22 12:13:13;;;;;;;;;;;11.70;99.90;;;;;;5153139;27;19911;-76
2022/04/22 12:15:42;;;;;;;;;;;11.70;99.90;;;;;;5153764;27;19913;-76
2022/04/22 12:18:08;;;;;;;;;;;11.80;99.90;;;;;;5152962;27;19911;-76
2022/04/22 12:20:33;;;;;;;;;;;11.80;99.90;;;;;;5153832;27;19911;-75
2022/04/22 12:23:00;;;;;;;;;;;11.90;99.90;;;;;;5156042;27;19919;-74
2022/04/22 12:25:25;;;;;;;;;;;11.90;99.90;;;;;;5138897;27;19919;-75
2022/04/22 12:28:12;;;;;;;;;;;12.10;99.90;;;;;;5157422;27;19911;-75
2022/04/22 12:30:38;;;;;;;;;;;12.00;99.90;;;;;;5157290;27;19907;-74
2022/04/22 12:33:05;;;;;;;;;;;12.00;99.90;;;;;;5156728;27;19907;-74
2022/04/22 12:35:31;;;;;;;;;;;12.00;99.90;;;;;;5157485;27;19917;-75
2022/04/22 12:37:57;;;;;;;;;;;12.00;99.90;;;;;;5156263;27;19994;-75
2022/04/22 12:40:23;;;;;;;;;;;12.00;99.90;;;;;;5157044;27;20005;-75
2022/04/22 12:42:49;;;;;;;;;;;12.10;99.90;;;;;;5157120;27;20014;-75
2022/04/22 12:53:46;;;;;;;;;;;12.30;99.90;;;;;;5156401;27;19960;-76
2022/04/22 12:56:12;;;;;;;;;;;12.50;99.90;;;;;;5156435;27;19919;-74
2022/04/22 12:58:50;;;;;;;;;;;12.60;99.90;;;;;;5156388;27;19914;-76
2022/04/22 13:01:20;;;;;;;;;;;12.70;99.90;;;;;;5137048;27;20384;-74
2022/04/22 13:03:45;;;;;;;;;;;12.90;99.90;;;;;;5156340;27;19907;-75
2022/04/22 13:06:12;;;;;;;;;;;13.00;99.90;;;;;;5155830;27;19907;-76
2022/04/22 13:08:37;;;;;;;;;;;13.20;99.90;;;;;;5155887;27;19959;-75
2022/04/22 13:11:04;;;;;;;;;;;13.10;99.90;;;;;;5155351;27;20348;-75
2022/04/22 13:13:30;;;;;;;;;;;13.00;99.90;;;;;;5156413;27;19907;-76
2022/04/22 13:15:56;;;;;;;;;;;13.10;99.90;;;;;;5155172;27;19908;-76
2022/04/22 13:18:21;;;;;;;;;;;13.20;99.90;;;;;;5156025;27;19921;-76
2022/04/22 13:20:47;;;;;;;;;;;13.00;99.90;;;;;;5156136;27;19907;-75
2022/04/22 13:23:12;;;;;;;;;;;13.20;99.90;;;;;;5155206;27;19926;-76
2022/04/22 13:25:39;;;;;;;;;;;13.30;99.90;;;;;;5155988;27;19907;-75
2022/04/22 13:28:05;;;;;;;;;;;13.40;99.90;;;;;;5155463;27;19907;-75
2022/04/22 13:30:30;;;;;;;;;;;13.30;99.90;;;;;;5155908;27;19979;-77
2022/04/22 13:32:56;;;;;;;;;;;13.30;99.90;;;;;;5155385;27;20340;-76
2022/04/22 13:35:23;;;;;;;;;;;13.30;99.90;;;;;;5155344;27;19952;-76
2022/04/22 13:37:49;;;;;;;;;;;13.10;99.90;;;;;;5155432;27;19907;-77
2022/04/22 13:40:16;;;;;;;;;;;13.00;99.90;;;;;;5154814;27;20537;-77
2022/04/22 13:42:41;;;;;;;;;;;12.90;99.90;;;;;;5155468;27;20026;-77
2022/04/22 13:53:33;;;;;;;;;;;13.00;99.90;;;;;;5155075;27;19914;-76
2022/04/22 13:55:59;;;;;;;;;;;13.20;99.90;;;;;;5154538;27;19918;-76
2022/04/22 13:58:26;;;;;;;;;;;13.40;99.90;;;;;;5155117;27;19946;-76
2022/04/22 14:00:52;;;;;;;;;;;13.50;99.90;;;;;;5155221;27;19952;-76
2022/04/22 14:03:19;;;;;;;;;;;13.50;99.90;;;;;;5154378;27;20316;-76
2022/04/22 14:05:45;;;;;;;;;;;13.60;99.90;;;;;;5155309;27;19914;-75
2022/04/22 14:08:11;;;;;;;;;;;13.60;99.90;;;;;;5154803;27;19911;-75
2022/04/22 14:10:37;;;;;;;;;;;13.70;99.90;;;;;;5155416;27;19953;-75
2022/04/22 14:13:03;;;;;;;;;;;13.80;99.90;;;;;;5154913;27;19946;-75
2022/04/22 14:15:28;;;;;;;;;;;13.90;99.90;;;;;;5155546;27;20447;-75
2022/04/22 14:17:54;;;;;;;;;;;14.00;99.90;;;;;;5155069;27;19907;-75
2022/04/22 14:20:20;;;;;;;;;;;14.10;99.90;;;;;;5154494;27;19908;-75
2022/04/22 14:22:51;;;;;;;;;;;14.10;99.90;;;;;;5155106;27;19915;-75
2022/04/22 14:25:17;;;;;;;;;;;14.20;99.90;;;;;;5154650;27;19907;-75
2022/04/22 14:27:42;;;;;;;;;;;14.20;99.90;;;;;;5155242;27;20006;-75
2022/04/22 14:30:08;;;;;;;;;;;14.10;99.90;;;;;;5155005;27;20360;-75
2022/04/22 14:32:34;;;;;;;;;;;14.10;99.90;;;;;;5155130;27;19907;-75
2022/04/22 14:35:00;;;;;;;;;;;14.20;99.90;;;;;;5154446;27;19914;-76
2022/04/22 14:37:25;;;;;;;;;;;14.20;99.90;;;;;;5136697;27;20267;-76
2022/04/22 14:39:51;;;;;;;;;;;14.30;99.90;;;;;;5155066;27;19918;-76
2022/04/22 14:42:17;;;;;;;;;;;14.40;99.90;;;;;;5154241;27;19919;-75
2022/04/22 14:44:42;;;;;;;;;;;14.30;99.90;;;;;;5154595;27;19907;-76
2022/04/22 14:47:11;;;;;;;;;;;14.30;99.90;;;;;;5153586;27;20317;-75
2022/04/22 14:49:36;;;;;;;;;;;14.50;99.90;;;;;;5155003;27;19907;-75
2022/04/22 14:52:02;;;;;;;;;;;14.60;99.90;;;;;;5118397;27;19907;-75
2022/04/22 14:54:28;;;;;;;;;;;14.50;99.90;;;;;;5155136;27;19911;-75
2022/04/22 14:56:53;;;;;;;;;;;14.50;99.90;;;;;;5154656;27;19919;-76
2022/04/22 14:59:19;;;;;;;;;;;14.50;99.90;;;;;;5153902;27;19909;-76
2022/04/22 15:01:45;;;;;;;;;;;14.50;99.90;;;;;;5154170;27;19915;-76
2022/04/22 15:04:10;;;;;;;;;;;14.60;99.90;;;;;;5153981;27;19911;-76
2022/04/22 15:06:37;;;;;;;;;;;14.80;99.90;;;;;;5154267;27;19951;-76
2022/04/22 15:09:06;;;;;;;;;;;14.80;99.90;;;;;;5153950;27;19907;-75
2022/04/22 15:11:31;;;;;;;;;;;15.00;99.90;;;;;;5154507;27;19983;-76
2022/04/22 15:14:02;;;;;;;;;;;15.00;99.90;;;;;;5154566;27;20372;-75
2022/04/22 15:16:29;;;;;;;;;;;15.20;99.90;;;;;;5154055;27;20324;-75
2022/04/22 15:24:24;;;;;;;;;;;15.70;99.90;;;;;;5102556;27;19930;-76
2022/04/22 15:26:53;;;;;;;;;;;15.40;99.90;;;;;;5140583;27;20375;-76
2022/04/22 15:29:19;;;;;;;;;;;15.40;99.90;;;;;;5139034;27;19908;-76
2022/04/22 15:31:44;;;;;;;;;;;15.60;99.90;;;;;;5147120;27;19914;-76
2022/04/22 15:34:10;;;;;;;;;;;15.70;99.90;;;;;;5138946;27;20379;-77
2022/04/22 15:36:37;;;;;;;;;;;15.70;99.90;;;;;;5119948;27;20389;-76
2022/04/22 15:39:03;;;;;;;;;;;15.60;99.90;;;;;;5140859;27;20359;-76
2022/04/22 15:41:33;;;;;;;;;;;15.60;99.90;;;;;;5133784;27;19919;-76
2022/04/22 15:44:00;;;;;;;;;;;15.80;99.90;;;;;;5148989;27;20002;-76